map of CAN home
CAN - Airport
Location
City:  Guangzhou, Guangdong, China
Near (Alt.):Canton
Name:Baiyun
ICAO:ZGGG
IATA:CAN

Details
Type:Airport (Aerodrome, Airfield)
Use:Public/Civil, International (customs port of entry)
Latitude:2324'N (23.393)
Longitude:11318'E (113.308)
Elevation:49 ft (15 m)
Variation:2.91W (WMM2015 magnetic declination)
-0.06 annual change
Runways:3
Longest:12467 × 197 ft (3800 × 60 m), paved

Time
Time Zone:UTC+8
Local Time:

Weather
METAR:ZGGG 131630Z 08002MPS 7000 OVC036 16/12 Q1018 NOSIG
TAF:ZGGG 131513Z 1318/1418 05003MPS 7000 SCT011 OVC033 TX18/1407Z TN14/1322Z
BECMG 1320/1321 3500 -RA BR
BECMG 1402/1403 6000

Related Locations
Nearby:
Farthest:SCPE: 12346 mi / 19868 km
San Pedro de Atacama, AN, CL

Find:

   beyond  
but within

Other Information
Maps:
NOTAMs:
Links:
Sources:

  
flag of China   

Sectional Chart

Flight Planning
at skyvector.com

Satellite Image

Google Maps Satellite view

 

Copyright © 2004-2017 Karl L. Swartz. All rights reserved.
The Great Circle Mapper name and logo are trademarks of the Great Circle Mapper.
All other trademarks mentioned herein belong to their respective owners.
Please see credits for attibutions and further copyright information.

  Follow gcmap on Facebook Follow gcmap on Twitter Follow gcmap on Google+ GCmap on LinkedIn

hCard Microformat

Geo Microformat